sensor_id;sensor_type;location;lat;lon;timestamp;temperature;humidity
51878;SHT31;37911;51.526;11.536;2022-11-04T00:02:54;9.25;85.74
51878;SHT31;37911;51.526;11.536;2022-11-04T00:05:59;9.22;86.08
51878;SHT31;37911;51.526;11.536;2022-11-04T00:09:08;9.19;86.19
51878;SHT31;37911;51.526;11.536;2022-11-04T00:12:11;9.19;86.39
51878;SHT31;37911;51.526;11.536;2022-11-04T00:15:24;9.22;86.46
51878;SHT31;37911;51.526;11.536;2022-11-04T00:18:40;9.18;86.62
51878;SHT31;37911;51.526;11.536;2022-11-04T00:21:43;9.19;86.83
51878;SHT31;37911;51.526;11.536;2022-11-04T00:25:03;9.18;86.98
51878;SHT31;37911;51.526;11.536;2022-11-04T00:28:19;9.17;87.25
51878;SHT31;37911;51.526;11.536;2022-11-04T00:31:35;9.08;87.52
51878;SHT31;37911;51.526;11.536;2022-11-04T00:34:51;9.07;87.49
51878;SHT31;37911;51.526;11.536;2022-11-04T00:37:54;9.05;87.53
51878;SHT31;37911;51.526;11.536;2022-11-04T00:41:00;9.01;87.59
51878;SHT31;37911;51.526;11.536;2022-11-04T00:44:24;9.00;87.53
51878;SHT31;37911;51.526;11.536;2022-11-04T00:47:27;9.03;87.55
51878;SHT31;37911;51.526;11.536;2022-11-04T00:50:31;8.92;87.58
51878;SHT31;37911;51.526;11.536;2022-11-04T00:53:34;8.89;87.65
51878;SHT31;37911;51.526;11.536;2022-11-04T00:56:40;8.85;87.88
51878;SHT31;37911;51.526;11.536;2022-11-04T00:59:43;8.88;87.92
51878;SHT31;37911;51.526;11.536;2022-11-04T01:02:47;8.89;87.87
51878;SHT31;37911;51.526;11.536;2022-11-04T01:05:51;8.89;87.88
51878;SHT31;37911;51.526;11.536;2022-11-04T01:08:55;8.87;88.06
51878;SHT31;37911;51.526;11.536;2022-11-04T01:12:01;8.89;87.98
51878;SHT31;37911;51.526;11.536;2022-11-04T01:15:05;8.94;87.99
51878;SHT31;37911;51.526;11.536;2022-11-04T01:18:09;8.94;88.02
51878;SHT31;37911;51.526;11.536;2022-11-04T01:21:13;8.97;87.87
51878;SHT31;37911;51.526;11.536;2022-11-04T01:24:18;8.98;87.78
51878;SHT31;37911;51.526;11.536;2022-11-04T01:27:25;8.98;87.87
51878;SHT31;37911;51.526;11.536;2022-11-04T01:30:29;8.94;87.88
51878;SHT31;37911;51.526;11.536;2022-11-04T01:33:32;8.96;87.80
51878;SHT31;37911;51.526;11.536;2022-11-04T01:36:35;8.84;87.99
51878;SHT31;37911;51.526;11.536;2022-11-04T01:39:39;8.84;88.10
51878;SHT31;37911;51.526;11.536;2022-11-04T01:42:45;8.83;88.12
51878;SHT31;37911;51.526;11.536;2022-11-04T01:45:51;8.81;88.18
51878;SHT31;37911;51.526;11.536;2022-11-04T01:49:00;8.78;88.14
51878;SHT31;37911;51.526;11.536;2022-11-04T01:52:08;8.85;88.11
51878;SHT31;37911;51.526;11.536;2022-11-04T01:55:15;8.87;88.03
51878;SHT31;37911;51.526;11.536;2022-11-04T01:58:24;8.84;88.08
51878;SHT31;37911;51.526;11.536;2022-11-04T02:01:28;8.84;88.18
51878;SHT31;37911;51.526;11.536;2022-11-04T02:04:32;8.85;88.19
51878;SHT31;37911;51.526;11.536;2022-11-04T02:07:36;8.81;88.27
51878;SHT31;37911;51.526;11.536;2022-11-04T02:10:41;8.88;88.33
51878;SHT31;37911;51.526;11.536;2022-11-04T02:13:51;8.91;88.33
51878;SHT31;37911;51.526;11.536;2022-11-04T02:16:52;8.94;88.31
51878;SHT31;37911;51.526;11.536;2022-11-04T02:20:03;8.96;88.29
51878;SHT31;37911;51.526;11.536;2022-11-04T02:23:31;8.89;88.27
51878;SHT31;37911;51.526;11.536;2022-11-04T02:27:01;8.92;88.38
51878;SHT31;37911;51.526;11.536;2022-11-04T02:30:10;8.92;88.38
51878;SHT31;37911;51.526;11.536;2022-11-04T02:33:21;8.96;88.48
51878;SHT31;37911;51.526;11.536;2022-11-04T02:36:32;8.92;88.58
51878;SHT31;37911;51.526;11.536;2022-11-04T02:39:49;8.92;88.83
51878;SHT31;37911;51.526;11.536;2022-11-04T02:42:56;8.96;88.93
51878;SHT31;37911;51.526;11.536;2022-11-04T02:46:05;8.94;89.12
51878;SHT31;37911;51.526;11.536;2022-11-04T02:49:17;8.96;89.25
51878;SHT31;37911;51.526;11.536;2022-11-04T02:52:25;8.98;89.34
51878;SHT31;37911;51.526;11.536;2022-11-04T02:55:34;8.97;89.56
51878;SHT31;37911;51.526;11.536;2022-11-04T02:58:41;8.96;89.57
51878;SHT31;37911;51.526;11.536;2022-11-04T03:01:51;8.91;89.61
51878;SHT31;37911;51.526;11.536;2022-11-04T03:04:57;8.91;89.51
51878;SHT31;37911;51.526;11.536;2022-11-04T03:08:03;8.94;89.55
51878;SHT31;37911;51.526;11.536;2022-11-04T03:11:11;8.92;89.72
51878;SHT31;37911;51.526;11.536;2022-11-04T03:14:18;8.92;89.76
51878;SHT31;37911;51.526;11.536;2022-11-04T03:17:28;8.92;89.81
51878;SHT31;37911;51.526;11.536;2022-11-04T03:20:37;8.85;89.91
51878;SHT31;37911;51.526;11.536;2022-11-04T03:23:43;8.88;89.92
51878;SHT31;37911;51.526;11.536;2022-11-04T03:26:51;8.87;89.88
51878;SHT31;37911;51.526;11.536;2022-11-04T03:30:00;8.87;89.95
51878;SHT31;37911;51.526;11.536;2022-11-04T03:33:13;8.87;90.06
51878;SHT31;37911;51.526;11.536;2022-11-04T03:36:21;8.87;90.09
51878;SHT31;37911;51.526;11.536;2022-11-04T03:39:25;8.85;90.18
51878;SHT31;37911;51.526;11.536;2022-11-04T03:42:29;8.88;90.28
51878;SHT31;37911;51.526;11.536;2022-11-04T03:45:34;8.92;90.31
51878;SHT31;37911;51.526;11.536;2022-11-04T03:48:41;8.97;90.32
51878;SHT31;37911;51.526;11.536;2022-11-04T03:51:46;9.03;90.39
51878;SHT31;37911;51.526;11.536;2022-11-04T03:54:50;9.12;90.58
51878;SHT31;37911;51.526;11.536;2022-11-04T03:57:56;9.25;91.01
51878;SHT31;37911;51.526;11.536;2022-11-04T04:01:07;9.41;91.16
51878;SHT31;37911;51.526;11.536;2022-11-04T04:04:19;9.52;91.28
51878;SHT31;37911;51.526;11.536;2022-11-04T04:07:30;9.62;91.37
51878;SHT31;37911;51.526;11.536;2022-11-04T04:10:38;9.66;91.25
51878;SHT31;37911;51.526;11.536;2022-11-04T04:13:47;9.65;91.28
51878;SHT31;37911;51.526;11.536;2022-11-04T04:16:53;9.66;91.20
51878;SHT31;37911;51.526;11.536;2022-11-04T04:20:03;9.66;91.29
51878;SHT31;37911;51.526;11.536;2022-11-04T04:23:09;9.75;91.19
51878;SHT31;37911;51.526;11.536;2022-11-04T04:26:25;9.73;91.17
51878;SHT31;37911;51.526;11.536;2022-11-04T04:29:43;9.75;91.24
51878;SHT31;37911;51.526;11.536;2022-11-04T04:32:50;9.73;91.24
51878;SHT31;37911;51.526;11.536;2022-11-04T04:35:58;9.73;91.25
51878;SHT31;37911;51.526;11.536;2022-11-04T04:39:04;9.73;91.14
51878;SHT31;37911;51.526;11.536;2022-11-04T04:42:21;9.78;91.04
51878;SHT31;37911;51.526;11.536;2022-11-04T04:45:37;9.80;91.01
51878;SHT31;37911;51.526;11.536;2022-11-04T04:48:43;9.76;91.05
51878;SHT31;37911;51.526;11.536;2022-11-04T04:51:49;9.76;91.22
51878;SHT31;37911;51.526;11.536;2022-11-04T04:54:52;9.75;91.26
51878;SHT31;37911;51.526;11.536;2022-11-04T04:57:55;9.75;91.26
51878;SHT31;37911;51.526;11.536;2022-11-04T05:00:59;9.75;91.28
51878;SHT31;37911;51.526;11.536;2022-11-04T05:04:02;9.83;91.30
51878;SHT31;37911;51.526;11.536;2022-11-04T05:07:09;9.85;91.12
51878;SHT31;37911;51.526;11.536;2022-11-04T05:10:13;9.89;91.09
51878;SHT31;37911;51.526;11.536;2022-11-04T05:13:20;9.97;90.98
51878;SHT31;37911;51.526;11.536;2022-11-04T05:16:29;10.02;90.80
51878;SHT31;37911;51.526;11.536;2022-11-04T05:19:33;10.02;90.93
51878;SHT31;37911;51.526;11.536;2022-11-04T05:22:39;10.02;91.07
51878;SHT31;37911;51.526;11.536;2022-11-04T05:25:42;10.03;91.08
51878;SHT31;37911;51.526;11.536;2022-11-04T05:28:46;10.03;91.08
51878;SHT31;37911;51.526;11.536;2022-11-04T05:31:49;10.02;91.14
51878;SHT31;37911;51.526;11.536;2022-11-04T05:34:53;10.03;91.18
51878;SHT31;37911;51.526;11.536;2022-11-04T05:37:59;9.99;91.35
51878;SHT31;37911;51.526;11.536;2022-11-04T05:41:02;9.99;91.36
51878;SHT31;37911;51.526;11.536;2022-11-04T05:44:07;10.00;91.52
51878;SHT31;37911;51.526;11.536;2022-11-04T05:47:11;10.00;91.47
51878;SHT31;37911;51.526;11.536;2022-11-04T05:50:14;10.04;91.38
51878;SHT31;37911;51.526;11.536;2022-11-04T05:53:20;10.00;91.45
51878;SHT31;37911;51.526;11.536;2022-11-04T05:56:24;10.00;91.35
51878;SHT31;37911;51.526;11.536;2022-11-04T05:59:27;9.97;91.41
51878;SHT31;37911;51.526;11.536;2022-11-04T06:02:31;9.92;91.46
51878;SHT31;37911;51.526;11.536;2022-11-04T06:05:34;9.90;91.52
51878;SHT31;37911;51.526;11.536;2022-11-04T06:08:40;9.89;91.58
51878;SHT31;37911;51.526;11.536;2022-11-04T06:11:44;9.90;91.60
51878;SHT31;37911;51.526;11.536;2022-11-04T06:14:47;9.89;91.63
51878;SHT31;37911;51.526;11.536;2022-11-04T06:17:50;9.93;91.51
51878;SHT31;37911;51.526;11.536;2022-11-04T06:21:06;9.87;91.65
51878;SHT31;37911;51.526;11.536;2022-11-04T06:24:12;9.85;91.65
51878;SHT31;37911;51.526;11.536;2022-11-04T06:27:16;9.87;91.59
51878;SHT31;37911;51.526;11.536;2022-11-04T06:30:20;9.83;91.62
51878;SHT31;37911;51.526;11.536;2022-11-04T06:33:24;9.82;91.59
51878;SHT31;37911;51.526;11.536;2022-11-04T06:36:27;9.87;91.52
51878;SHT31;37911;51.526;11.536;2022-11-04T06:39:33;9.85;91.58
51878;SHT31;37911;51.526;11.536;2022-11-04T06:42:37;9.89;91.54
51878;SHT31;37911;51.526;11.536;2022-11-04T06:45:42;9.86;91.44
51878;SHT31;37911;51.526;11.536;2022-11-04T06:48:46;9.87;91.37
51878;SHT31;37911;51.526;11.536;2022-11-04T06:51:49;9.87;91.18
51878;SHT31;37911;51.526;11.536;2022-11-04T06:54:55;9.86;91.21
51878;SHT31;37911;51.526;11.536;2022-11-04T06:57:59;9.97;90.03
51878;SHT31;37911;51.526;11.536;2022-11-04T07:01:02;9.93;89.34
51878;SHT31;37911;51.526;11.536;2022-11-04T07:04:08;10.00;89.01
51878;SHT31;37911;51.526;11.536;2022-11-04T07:07:12;10.06;88.87
51878;SHT31;37911;51.526;11.536;2022-11-04T07:10:18;10.13;88.47
51878;SHT31;37911;51.526;11.536;2022-11-04T07:13:22;10.23;88.26
51878;SHT31;37911;51.526;11.536;2022-11-04T07:16:25;10.20;88.32
51878;SHT31;37911;51.526;11.536;2022-11-04T07:19:30;10.21;88.45
51878;SHT31;37911;51.526;11.536;2022-11-04T07:22:33;10.27;88.20
51878;SHT31;37911;51.526;11.536;2022-11-04T07:25:39;10.32;88.07
51878;SHT31;37911;51.526;11.536;2022-11-04T07:28:43;10.30;88.19
51878;SHT31;37911;51.526;11.536;2022-11-04T07:31:46;10.29;87.85
51878;SHT31;37911;51.526;11.536;2022-11-04T07:34:50;10.25;87.44
51878;SHT31;37911;51.526;11.536;2022-11-04T07:37:54;10.34;86.68
51878;SHT31;37911;51.526;11.536;2022-11-04T07:41:03;10.33;86.09
51878;SHT31;37911;51.526;11.536;2022-11-04T07:44:09;10.33;85.24
51878;SHT31;37911;51.526;11.536;2022-11-04T07:47:13;10.32;84.30
51878;SHT31;37911;51.526;11.536;2022-11-04T07:50:17;10.36;83.64
51878;SHT31;37911;51.526;11.536;2022-11-04T07:53:20;10.44;82.27
51878;SHT31;37911;51.526;11.536;2022-11-04T07:56:26;10.43;82.81
51878;SHT31;37911;51.526;11.536;2022-11-04T07:59:32;10.44;82.68
51878;SHT31;37911;51.526;11.536;2022-11-04T08:02:35;10.43;82.86
51878;SHT31;37911;51.526;11.536;2022-11-04T08:05:39;10.44;82.90
51878;SHT31;37911;51.526;11.536;2022-11-04T08:08:42;10.47;82.98
51878;SHT31;37911;51.526;11.536;2022-11-04T08:11:50;10.50;83.24
51878;SHT31;37911;51.526;11.536;2022-11-04T08:14:53;10.55;83.11
51878;SHT31;37911;51.526;11.536;2022-11-04T08:17:56;10.58;83.05
51878;SHT31;37911;51.526;11.536;2022-11-04T08:21:00;10.64;82.94
51878;SHT31;37911;51.526;11.536;2022-11-04T08:24:04;10.65;82.81
51878;SHT31;37911;51.526;11.536;2022-11-04T08:27:11;10.67;83.09
51878;SHT31;37911;51.526;11.536;2022-11-04T08:30:14;10.69;83.04
51878;SHT31;37911;51.526;11.536;2022-11-04T08:33:17;10.72;82.77
51878;SHT31;37911;51.526;11.536;2022-11-04T08:36:23;10.72;82.71
51878;SHT31;37911;51.526;11.536;2022-11-04T08:39:26;10.72;83.03
51878;SHT31;37911;51.526;11.536;2022-11-04T08:42:32;10.77;82.57
51878;SHT31;37911;51.526;11.536;2022-11-04T08:45:38;10.81;82.61
51878;SHT31;37911;51.526;11.536;2022-11-04T08:48:43;10.85;83.04
51878;SHT31;37911;51.526;11.536;2022-11-04T08:51:47;10.85;83.20
51878;SHT31;37911;51.526;11.536;2022-11-04T08:54:56;10.91;83.35
51878;SHT31;37911;51.526;11.536;2022-11-04T08:58:02;10.98;83.64
51878;SHT31;37911;51.526;11.536;2022-11-04T09:01:07;10.99;83.47
51878;SHT31;37911;51.526;11.536;2022-11-04T09:04:12;11.02;83.32
51878;SHT31;37911;51.526;11.536;2022-11-04T09:07:15;11.02;82.86
51878;SHT31;37911;51.526;11.536;2022-11-04T09:10:20;11.04;82.87
51878;SHT31;37911;51.526;11.536;2022-11-04T09:13:27;11.07;82.31
51878;SHT31;37911;51.526;11.536;2022-11-04T09:16:32;11.02;81.98
51878;SHT31;37911;51.526;11.536;2022-11-04T09:19:35;10.99;81.75
51878;SHT31;37911;51.526;11.536;2022-11-04T09:22:39;11.02;82.30
51878;SHT31;37911;51.526;11.536;2022-11-04T09:25:43;11.08;82.47
51878;SHT31;37911;51.526;11.536;2022-11-04T09:28:52;11.15;82.47
51878;SHT31;37911;51.526;11.536;2022-11-04T09:31:56;11.11;82.07
51878;SHT31;37911;51.526;11.536;2022-11-04T09:34:59;11.07;82.65
51878;SHT31;37911;51.526;11.536;2022-11-04T09:38:04;11.08;81.55
51878;SHT31;37911;51.526;11.536;2022-11-04T09:41:23;11.09;81.92
51878;SHT31;37911;51.526;11.536;2022-11-04T09:44:39;11.11;81.66
51878;SHT31;37911;51.526;11.536;2022-11-04T09:47:48;11.07;82.23
51878;SHT31;37911;51.526;11.536;2022-11-04T09:50:55;11.12;81.31
51878;SHT31;37911;51.526;11.536;2022-11-04T09:54:03;11.11;81.07
51878;SHT31;37911;51.526;11.536;2022-11-04T09:57:15;11.11;80.48
51878;SHT31;37911;51.526;11.536;2022-11-04T10:00:22;11.02;80.79
51878;SHT31;37911;51.526;11.536;2022-11-04T10:03:40;11.11;80.00
51878;SHT31;37911;51.526;11.536;2022-11-04T10:07:01;11.09;79.88
51878;SHT31;37911;51.526;11.536;2022-11-04T10:10:17;11.07;79.97
51878;SHT31;37911;51.526;11.536;2022-11-04T10:13:30;11.02;79.67
51878;SHT31;37911;51.526;11.536;2022-11-04T10:16:50;11.04;79.45
51878;SHT31;37911;51.526;11.536;2022-11-04T10:20:13;11.01;79.80
51878;SHT31;37911;51.526;11.536;2022-11-04T10:23:26;10.97;79.13
51878;SHT31;37911;51.526;11.536;2022-11-04T10:26:38;10.99;79.40
51878;SHT31;37911;51.526;11.536;2022-11-04T10:29:45;11.04;79.29
51878;SHT31;37911;51.526;11.536;2022-11-04T10:32:58;11.11;79.34
51878;SHT31;37911;51.526;11.536;2022-11-04T10:36:05;11.22;78.81
51878;SHT31;37911;51.526;11.536;2022-11-04T10:39:14;11.19;78.68
51878;SHT31;37911;51.526;11.536;2022-11-04T10:42:22;11.19;78.22
51878;SHT31;37911;51.526;11.536;2022-11-04T10:45:30;11.18;78.40
51878;SHT31;37911;51.526;11.536;2022-11-04T10:48:44;11.19;78.47
51878;SHT31;37911;51.526;11.536;2022-11-04T10:51:50;11.16;78.12
51878;SHT31;37911;51.526;11.536;2022-11-04T10:54:54;11.18;78.26
51878;SHT31;37911;51.526;11.536;2022-11-04T10:57:58;11.19;78.68
51878;SHT31;37911;51.526;11.536;2022-11-04T11:01:22;11.18;78.48
51878;SHT31;37911;51.526;11.536;2022-11-04T11:04:31;11.16;78.72
51878;SHT31;37911;51.526;11.536;2022-11-04T11:07:37;11.08;78.35
51878;SHT31;37911;51.526;11.536;2022-11-04T11:10:50;11.04;78.75
51878;SHT31;37911;51.526;11.536;2022-11-04T11:13:56;11.01;79.25
51878;SHT31;37911;51.526;11.536;2022-11-04T11:17:17;10.98;79.31
51878;SHT31;37911;51.526;11.536;2022-11-04T11:20:25;10.97;79.24
51878;SHT31;37911;51.526;11.536;2022-11-04T11:23:37;10.94;79.24
51878;SHT31;37911;51.526;11.536;2022-11-04T11:26:41;10.89;79.29
51878;SHT31;37911;51.526;11.536;2022-11-04T11:29:49;10.88;79.72
51878;SHT31;37911;51.526;11.536;2022-11-04T11:32:58;10.88;79.90
51878;SHT31;37911;51.526;11.536;2022-11-04T11:36:08;10.88;79.89
51878;SHT31;37911;51.526;11.536;2022-11-04T11:39:18;10.91;79.84
51878;SHT31;37911;51.526;11.536;2022-11-04T11:42:25;10.84;79.58
51878;SHT31;37911;51.526;11.536;2022-11-04T11:45:29;10.81;79.96
51878;SHT31;37911;51.526;11.536;2022-11-04T11:48:39;10.79;80.36
51878;SHT31;37911;51.526;11.536;2022-11-04T11:51:46;10.79;80.28
51878;SHT31;37911;51.526;11.536;2022-11-04T11:54:52;10.77;80.42
51878;SHT31;37911;51.526;11.536;2022-11-04T11:58:04;10.77;80.51
51878;SHT31;37911;51.526;11.536;2022-11-04T12:01:15;10.78;80.28
51878;SHT31;37911;51.526;11.536;2022-11-04T12:04:20;10.79;80.29
51878;SHT31;37911;51.526;11.536;2022-11-04T12:07:32;10.85;80.47
51878;SHT31;37911;51.526;11.536;2022-11-04T12:10:46;10.89;80.30
51878;SHT31;37911;51.526;11.536;2022-11-04T12:13:55;10.97;79.88
51878;SHT31;37911;51.526;11.536;2022-11-04T12:17:03;11.08;79.96
51878;SHT31;37911;51.526;11.536;2022-11-04T12:20:27;11.12;79.75
51878;SHT31;37911;51.526;11.536;2022-11-04T12:23:44;11.12;79.26
51878;SHT31;37911;51.526;11.536;2022-11-04T12:26:56;11.18;79.64
51878;SHT31;37911;51.526;11.536;2022-11-04T12:30:07;11.20;78.36
51878;SHT31;37911;51.526;11.536;2022-11-04T12:33:22;11.35;78.32
51878;SHT31;37911;51.526;11.536;2022-11-04T12:36:40;11.44;77.83
51878;SHT31;37911;51.526;11.536;2022-11-04T12:39:55;11.67;77.16
51878;SHT31;37911;51.526;11.536;2022-11-04T12:43:16;11.87;76.48
51878;SHT31;37911;51.526;11.536;2022-11-04T12:46:31;11.95;75.51
51878;SHT31;37911;51.526;11.536;2022-11-04T12:50:03;12.07;74.30
51878;SHT31;37911;51.526;11.536;2022-11-04T12:53:29;12.21;73.80
51878;SHT31;37911;51.526;11.536;2022-11-04T12:56:40;12.35;72.86
51878;SHT31;37911;51.526;11.536;2022-11-04T13:00:05;12.52;72.19
51878;SHT31;37911;51.526;11.536;2022-11-04T13:03:13;12.82;71.98
51878;SHT31;37911;51.526;11.536;2022-11-04T13:06:22;12.91;70.67
51878;SHT31;37911;51.526;11.536;2022-11-04T13:09:31;12.86;70.36
51878;SHT31;37911;51.526;11.536;2022-11-04T13:12:40;12.89;69.82
51878;SHT31;37911;51.526;11.536;2022-11-04T13:15:48;12.96;69.42
51878;SHT31;37911;51.526;11.536;2022-11-04T13:18:53;13.06;69.54
51878;SHT31;37911;51.526;11.536;2022-11-04T13:22:02;13.03;69.42
51878;SHT31;37911;51.526;11.536;2022-11-04T13:25:14;12.93;68.97
51878;SHT31;37911;51.526;11.536;2022-11-04T13:28:21;12.81;69.34
51878;SHT31;37911;51.526;11.536;2022-11-04T13:31:36;12.66;70.10
51878;SHT31;37911;51.526;11.536;2022-11-04T13:34:46;12.48;70.51
51878;SHT31;37911;51.526;11.536;2022-11-04T13:37:56;12.44;71.14
51878;SHT31;37911;51.526;11.536;2022-11-04T13:41:17;12.37;71.40
51878;SHT31;37911;51.526;11.536;2022-11-04T13:44:27;12.35;71.96
51878;SHT31;37911;51.526;11.536;2022-11-04T13:47:34;12.38;72.43
51878;SHT31;37911;51.526;11.536;2022-11-04T13:50:39;12.33;72.76
51878;SHT31;37911;51.526;11.536;2022-11-04T13:53:46;12.25;71.97
51878;SHT31;37911;51.526;11.536;2022-11-04T13:56:50;12.27;72.30
51878;SHT31;37911;51.526;11.536;2022-11-04T14:00:20;12.27;72.42
51878;SHT31;37911;51.526;11.536;2022-11-04T14:03:49;12.18;72.52
51878;SHT31;37911;51.526;11.536;2022-11-04T14:06:57;12.14;72.26
51878;SHT31;37911;51.526;11.536;2022-11-04T14:10:01;12.13;72.63
51878;SHT31;37911;51.526;11.536;2022-11-04T14:16:46;12.10;73.49
51878;SHT31;37911;51.526;11.536;2022-11-04T14:19:57;12.10;72.97
51878;SHT31;37911;51.526;11.536;2022-11-04T14:23:02;12.07;73.00
51878;SHT31;37911;51.526;11.536;2022-11-04T14:26:09;12.03;73.92
51878;SHT31;37911;51.526;11.536;2022-11-04T14:29:16;12.00;74.33
51878;SHT31;37911;51.526;11.536;2022-11-04T14:32:26;12.01;74.90
51878;SHT31;37911;51.526;11.536;2022-11-04T14:35:34;11.95;74.88
51878;SHT31;37911;51.526;11.536;2022-11-04T14:38:38;11.94;75.33
51878;SHT31;37911;51.526;11.536;2022-11-04T14:41:50;11.86;76.10
51878;SHT31;37911;51.526;11.536;2022-11-04T14:44:54;11.84;76.10
51878;SHT31;37911;51.526;11.536;2022-11-04T14:48:20;11.81;76.03
51878;SHT31;37911;51.526;11.536;2022-11-04T14:51:26;11.77;75.00
51878;SHT31;37911;51.526;11.536;2022-11-04T14:54:51;11.73;75.51
51878;SHT31;37911;51.526;11.536;2022-11-04T14:58:19;11.69;75.55
51878;SHT31;37911;51.526;11.536;2022-11-04T15:01:23;11.59;75.46
51878;SHT31;37911;51.526;11.536;2022-11-04T15:04:29;11.49;75.08
51878;SHT31;37911;51.526;11.536;2022-11-04T15:07:35;11.44;75.05
51878;SHT31;37911;51.526;11.536;2022-11-04T15:10:38;11.38;75.27
51878;SHT31;37911;51.526;11.536;2022-11-04T15:13:44;11.32;75.48
51878;SHT31;37911;51.526;11.536;2022-11-04T15:16:51;11.25;75.66
51878;SHT31;37911;51.526;11.536;2022-11-04T15:19:59;11.19;75.81
51878;SHT31;37911;51.526;11.536;2022-11-04T15:23:06;11.16;76.16
51878;SHT31;37911;51.526;11.536;2022-11-04T15:26:19;11.08;76.30
51878;SHT31;37911;51.526;11.536;2022-11-04T15:29:24;11.04;77.05
51878;SHT31;37911;51.526;11.536;2022-11-04T15:32:27;10.98;77.66
51878;SHT31;37911;51.526;11.536;2022-11-04T15:35:34;10.89;78.28
51878;SHT31;37911;51.526;11.536;2022-11-04T15:38:45;10.89;78.56
51878;SHT31;37911;51.526;11.536;2022-11-04T15:41:51;10.91;78.68
51878;SHT31;37911;51.526;11.536;2022-11-04T15:45:34;10.87;79.02
51878;SHT31;37911;51.526;11.536;2022-11-04T15:48:39;10.87;79.27
51878;SHT31;37911;51.526;11.536;2022-11-04T15:51:46;10.81;79.68
51878;SHT31;37911;51.526;11.536;2022-11-04T15:54:50;10.77;80.12
51878;SHT31;37911;51.526;11.536;2022-11-04T15:57:55;10.71;80.20
51878;SHT31;37911;51.526;11.536;2022-11-04T16:00:58;10.71;80.10
51878;SHT31;37911;51.526;11.536;2022-11-04T16:04:04;10.69;79.94
51878;SHT31;37911;51.526;11.536;2022-11-04T16:07:23;10.68;80.35
51878;SHT31;37911;51.526;11.536;2022-11-04T16:10:28;10.65;80.29
51878;SHT31;37911;51.526;11.536;2022-11-04T16:13:32;10.63;80.50
51878;SHT31;37911;51.526;11.536;2022-11-04T16:16:36;10.64;80.59
51878;SHT31;37911;51.526;11.536;2022-11-04T16:19:39;10.58;80.99
51878;SHT31;37911;51.526;11.536;2022-11-04T16:22:54;10.51;81.19
51878;SHT31;37911;51.526;11.536;2022-11-04T16:26:00;10.45;81.45
51878;SHT31;37911;51.526;11.536;2022-11-04T16:29:07;10.37;81.70
51878;SHT31;37911;51.526;11.536;2022-11-04T16:32:16;10.34;81.85
51878;SHT31;37911;51.526;11.536;2022-11-04T16:35:23;10.37;81.70
51878;SHT31;37911;51.526;11.536;2022-11-04T16:38:30;10.32;81.87
51878;SHT31;37911;51.526;11.536;2022-11-04T16:41:37;10.25;82.01
51878;SHT31;37911;51.526;11.536;2022-11-04T16:44:45;10.23;82.17
51878;SHT31;37911;51.526;11.536;2022-11-04T16:47:50;10.12;82.54
51878;SHT31;37911;51.526;11.536;2022-11-04T16:50:57;10.10;82.72
51878;SHT31;37911;51.526;11.536;2022-11-04T16:54:03;10.06;83.03
51878;SHT31;37911;51.526;11.536;2022-11-04T16:57:09;9.97;83.22
51878;SHT31;37911;51.526;11.536;2022-11-04T17:00:17;9.96;83.42
51878;SHT31;37911;51.526;11.536;2022-11-04T17:03:22;9.89;83.54
51878;SHT31;37911;51.526;11.536;2022-11-04T17:06:25;9.87;83.63
51878;SHT31;37911;51.526;11.536;2022-11-04T17:09:32;9.85;83.77
51878;SHT31;37911;51.526;11.536;2022-11-04T17:12:35;9.78;83.71
51878;SHT31;37911;51.526;11.536;2022-11-04T17:15:39;9.70;83.89
51878;SHT31;37911;51.526;11.536;2022-11-04T17:18:43;9.72;83.82
51878;SHT31;37911;51.526;11.536;2022-11-04T17:21:48;9.69;83.95
51878;SHT31;37911;51.526;11.536;2022-11-04T17:24:54;9.69;84.01
51878;SHT31;37911;51.526;11.536;2022-11-04T17:27:57;9.63;84.12
51878;SHT31;37911;51.526;11.536;2022-11-04T17:31:01;9.59;84.26
51878;SHT31;37911;51.526;11.536;2022-11-04T17:34:04;9.56;84.33
51878;SHT31;37911;51.526;11.536;2022-11-04T17:37:11;9.56;84.41
51878;SHT31;37911;51.526;11.536;2022-11-04T17:40:19;9.51;84.57
51878;SHT31;37911;51.526;11.536;2022-11-04T17:43:23;9.53;84.25
51878;SHT31;37911;51.526;11.536;2022-11-04T17:46:39;9.51;84.42
51878;SHT31;37911;51.526;11.536;2022-11-04T17:49:47;9.42;84.39
51878;SHT31;37911;51.526;11.536;2022-11-04T17:52:50;9.38;84.75
51878;SHT31;37911;51.526;11.536;2022-11-04T17:55:56;9.36;84.72
51878;SHT31;37911;51.526;11.536;2022-11-04T17:59:00;9.38;84.56
51878;SHT31;37911;51.526;11.536;2022-11-04T18:02:06;9.35;84.64
51878;SHT31;37911;51.526;11.536;2022-11-04T18:05:09;9.32;84.37
51878;SHT31;37911;51.526;11.536;2022-11-04T18:08:12;9.24;84.52
51878;SHT31;37911;51.526;11.536;2022-11-04T18:11:19;9.24;84.57
51878;SHT31;37911;51.526;11.536;2022-11-04T18:14:36;9.21;84.55
51878;SHT31;37911;51.526;11.536;2022-11-04T18:17:41;9.18;84.55
51878;SHT31;37911;51.526;11.536;2022-11-04T18:20:46;9.08;85.01
51878;SHT31;37911;51.526;11.536;2022-11-04T18:23:50;9.12;85.06
51878;SHT31;37911;51.526;11.536;2022-11-04T18:26:56;9.12;85.06
51878;SHT31;37911;51.526;11.536;2022-11-04T18:30:03;9.14;84.99
51878;SHT31;37911;51.526;11.536;2022-11-04T18:33:07;9.18;84.95
51878;SHT31;37911;51.526;11.536;2022-11-04T18:36:11;9.17;84.72
51878;SHT31;37911;51.526;11.536;2022-11-04T18:39:16;9.18;84.62
51878;SHT31;37911;51.526;11.536;2022-11-04T18:42:23;9.17;84.65
51878;SHT31;37911;51.526;11.536;2022-11-04T18:45:27;9.15;84.54
51878;SHT31;37911;51.526;11.536;2022-11-04T18:48:30;9.15;84.24
51878;SHT31;37911;51.526;11.536;2022-11-04T18:51:34;9.18;84.20
51878;SHT31;37911;51.526;11.536;2022-11-04T18:54:39;9.19;84.04
51878;SHT31;37911;51.526;11.536;2022-11-04T18:57:52;9.22;83.96
51878;SHT31;37911;51.526;11.536;2022-11-04T19:00:56;9.22;83.82
51878;SHT31;37911;51.526;11.536;2022-11-04T19:04:00;9.17;84.08
51878;SHT31;37911;51.526;11.536;2022-11-04T19:07:04;9.11;84.04
51878;SHT31;37911;51.526;11.536;2022-11-04T19:10:09;9.11;84.13
51878;SHT31;37911;51.526;11.536;2022-11-04T19:13:15;9.08;84.41
51878;SHT31;37911;51.526;11.536;2022-11-04T19:16:26;9.10;84.34
51878;SHT31;37911;51.526;11.536;2022-11-04T19:19:30;9.01;84.29
51878;SHT31;37911;51.526;11.536;2022-11-04T19:22:34;9.00;84.13
51878;SHT31;37911;51.526;11.536;2022-11-04T19:25:40;8.98;84.18
51878;SHT31;37911;51.526;11.536;2022-11-04T19:28:47;8.92;84.24
51878;SHT31;37911;51.526;11.536;2022-11-04T19:31:51;8.87;84.54
51878;SHT31;37911;51.526;11.536;2022-11-04T19:34:55;8.92;84.45
51878;SHT31;37911;51.526;11.536;2022-11-04T19:37:58;8.87;84.60
51878;SHT31;37911;51.526;11.536;2022-11-04T19:41:04;8.88;84.40